Time;durP1;ratioP1;P1;durP2;ratioP2;P2;SDS_P1;SDS_P2;PMS_P1;PMS_P2;Temp;Humidity;BMP_temperature;BMP_pressure;BME280_temperature;BME280_humidity;BME280_pressure;Samples;Min_cycle;Max_cycle;Signal;HPM_P1;HPM_P2
2022/01/16 00:04:50;;;;;;;28.42;9.70;;;;;;;;;;5046184;28;20148;-57
2022/01/16 00:07:17;;;;;;;;;;;;;;;;;;5050033;28;20501;-58
2022/01/16 00:09:44;;;;;;;26.80;8.30;;;;;;;;;;5042437;28;20017;-58
2022/01/16 00:12:11;;;;;;;28.40;8.30;;;;;;;;;;5047719;28;20670;-52
2022/01/16 00:14:37;;;;;;;29.45;9.43;;;;;;;;;;5043650;28;20076;-56
2022/01/16 00:17:05;;;;;;;34.90;10.65;;;;;;;;;;5047880;28;20077;-59
2022/01/16 00:19:31;;;;;;;35.88;10.80;;;;;;;;;;5043555;28;20129;-58
2022/01/16 00:21:59;;;;;;;36.92;10.57;;;;;;;;;;5037297;28;20110;-57
2022/01/16 00:24:26;;;;;;;25.42;9.57;;;;;;;;;;5045275;28;20052;-54
2022/01/16 00:26:53;;;;;;;31.45;10.25;;;;;;;;;;5049592;28;20080;-58
2022/01/16 00:29:19;;;;;;;34.40;11.13;;;;;;;;;;5037248;28;20065;-57
2022/01/16 00:31:46;;;;;;;29.85;10.07;;;;;;;;;;5043568;28;20092;-55
2022/01/16 00:34:12;;;;;;;30.90;10.38;;;;;;;;;;5042591;28;20051;-59
2022/01/16 00:36:39;;;;;;;31.17;11.43;;;;;;;;;;5047680;28;20049;-59
2022/01/16 00:39:07;;;;;;;28.60;10.05;;;;;;;;;;5045629;28;22315;-60
2022/01/16 00:41:35;;;;;;;29.33;10.32;;;;;;;;;;5048317;28;20106;-55
2022/01/16 00:44:01;;;;;;;35.92;11.15;;;;;;;;;;5043680;28;20056;-59
2022/01/16 00:46:28;;;;;;;33.67;10.60;;;;;;;;;;5046396;28;20080;-58
2022/01/16 00:48:55;;;;;;;29.23;11.18;;;;;;;;;;5045451;28;20052;-53
2022/01/16 00:51:21;;;;;;;29.20;10.18;;;;;;;;;;5041861;28;20057;-58
2022/01/16 00:53:47;;;;;;;33.33;10.88;;;;;;;;;;5045680;28;20085;-56
2022/01/16 00:56:16;;;;;;;29.33;10.43;;;;;;;;;;5042118;28;20056;-56
2022/01/16 00:58:42;;;;;;;33.13;12.15;;;;;;;;;;5045487;28;20486;-57
2022/01/16 01:01:09;;;;;;;34.85;10.35;;;;;;;;;;5041181;28;20057;-56
2022/01/16 01:03:35;;;;;;;31.20;10.00;;;;;;;;;;5032859;28;20068;-54
2022/01/16 01:06:03;;;;;;;32.85;10.88;;;;;;;;;;5021892;28;20049;-56
2022/01/16 01:08:30;;;;;;;32.92;11.63;;;;;;;;;;5039048;28;20045;-56
2022/01/16 01:10:58;;;;;;;34.40;10.77;;;;;;;;;;5024907;28;20060;-58
2022/01/16 01:13:33;;;;;;;32.47;11.38;;;;;;;;;;5045136;28;20049;-56
2022/01/16 01:16:03;;;;;;;31.27;10.82;;;;;;;;;;5040903;28;20112;-58
2022/01/16 01:18:30;;;;;;;28.42;8.93;;;;;;;;;;5045302;28;20059;-54
2022/01/16 01:20:57;;;;;;;31.90;9.65;;;;;;;;;;5041775;28;20123;-54
2022/01/16 01:23:24;;;;;;;23.27;8.52;;;;;;;;;;5045546;28;20231;-58
2022/01/16 01:25:51;;;;;;;29.73;9.93;;;;;;;;;;5058938;28;20057;-54
2022/01/16 01:28:17;;;;;;;31.98;11.00;;;;;;;;;;5062369;28;20121;-56
2022/01/16 01:30:45;;;;;;;33.33;9.82;;;;;;;;;;5046804;28;20099;-55
2022/01/16 01:33:13;;;;;;;36.00;10.82;;;;;;;;;;5044978;28;20064;-55
2022/01/16 01:35:40;;;;;;;26.23;9.52;;;;;;;;;;5046541;28;20106;-57
2022/01/16 01:38:07;;;;;;;35.30;11.20;;;;;;;;;;5041475;28;20060;-59
2022/01/16 01:40:34;;;;;;;33.90;11.20;;;;;;;;;;5045637;28;20048;-58
2022/01/16 01:51:00;;;;;;;33.25;10.48;;;;;;;;;;5042208;28;20088;-58
2022/01/16 01:51:22;;;;;;;27.15;9.23;;;;;;;;;;5040322;28;20126;-56
2022/01/16 01:53:50;;;;;;;27.77;9.32;;;;;;;;;;5040934;28;20056;-54
2022/01/16 01:56:20;;;;;;;30.52;10.45;;;;;;;;;;5044198;28;20057;-54
2022/01/16 01:58:47;;;;;;;29.88;10.10;;;;;;;;;;5042086;28;20064;-59
2022/01/16 02:01:15;;;;;;;32.25;10.32;;;;;;;;;;5046024;28;20077;-54
2022/01/16 02:03:43;;;;;;;32.58;10.32;;;;;;;;;;5042914;28;20057;-54
2022/01/16 02:06:21;;;;;;;27.98;8.88;;;;;;;;;;5047852;28;20052;-55
2022/01/16 02:08:50;;;;;;;26.92;9.15;;;;;;;;;;5044234;28;20155;-59
2022/01/16 02:11:16;;;;;;;;;;;;;;;;;;5045332;28;20140;-57
2022/01/16 02:13:52;;;;;;;23.95;8.02;;;;;;;;;;5041279;28;19921;-56
2022/01/16 02:33:11;;;;;;;36.47;12.05;;;;;;;;;;5048375;28;20087;-52
2022/01/16 02:35:36;;;;;;;36.53;11.70;;;;;;;;;;5046231;28;20148;-54
2022/01/16 02:38:05;;;;;;;22.52;7.45;;;;;;;;;;5047956;28;20056;-58
2022/01/16 02:40:32;;;;;;;24.55;7.22;;;;;;;;;;5045181;28;20115;-55
2022/01/16 02:42:58;;;;;;;30.35;9.85;;;;;;;;;;5047839;28;20053;-58
2022/01/16 02:45:31;;;;;;;28.60;10.35;;;;;;;;;;5044627;28;20106;-56
2022/01/16 02:47:58;;;;;;;34.75;11.32;;;;;;;;;;5047874;28;20053;-58
2022/01/16 02:50:25;;;;;;;35.55;11.27;;;;;;;;;;5044677;28;20140;-56
2022/01/16 02:52:52;;;;;;;33.65;10.10;;;;;;;;;;5048110;28;20136;-58
2022/01/16 02:55:21;;;;;;;29.77;9.90;;;;;;;;;;5044506;28;20135;-59
2022/01/16 02:57:48;;;;;;;31.55;9.35;;;;;;;;;;5048019;28;20056;-59
2022/01/16 03:03:36;;;;;;;26.25;7.75;;;;;;;;;;5040805;22;20068;-52
2022/01/16 03:06:03;;;;;;;27.48;8.57;;;;;;;;;;5038381;28;20061;-51
2022/01/16 03:08:29;;;;;;;32.08;9.35;;;;;;;;;;5045812;28;20057;-50
2022/01/16 03:11:15;;;;;;;33.60;10.73;;;;;;;;;;5039972;28;20053;-51
2022/01/16 03:13:43;;;;;;;38.53;12.32;;;;;;;;;;5050625;28;20136;-55
2022/01/16 03:16:15;;;;;;;29.17;10.73;;;;;;;;;;5039391;28;20053;-58
2022/01/16 03:24:10;;;;;;;35.03;11.07;;;;;;;;;;5050286;28;20171;-53
2022/01/16 03:26:38;;;;;;;29.13;10.23;;;;;;;;;;5043729;28;20079;-56
2022/01/16 03:29:04;;;;;;;33.67;10.02;;;;;;;;;;5053621;28;20049;-58
2022/01/16 03:31:31;;;;;;;35.30;9.90;;;;;;;;;;5055269;28;20116;-59
2022/01/16 03:33:58;;;;;;;34.17;10.20;;;;;;;;;;5049355;28;20061;-55
2022/01/16 03:36:26;;;;;;;28.13;8.90;;;;;;;;;;5049513;28;20637;-57
2022/01/16 03:38:52;;;;;;;36.47;11.68;;;;;;;;;;5039544;28;20053;-59
2022/01/16 03:41:19;;;;;;;32.33;10.60;;;;;;;;;;5049789;28;20052;-59
2022/01/16 03:43:47;;;;;;;37.17;11.38;;;;;;;;;;5042606;28;20518;-56
2022/01/16 03:46:15;;;;;;;33.92;10.57;;;;;;;;;;5052211;28;20052;-57
2022/01/16 03:48:41;;;;;;;27.57;9.37;;;;;;;;;;5051874;28;20049;-59
2022/01/16 03:51:08;;;;;;;36.67;11.15;;;;;;;;;;5045406;28;20049;-59
2022/01/16 03:53:35;;;;;;;38.90;10.55;;;;;;;;;;5050907;28;20049;-56
2022/01/16 03:56:09;;;;;;;39.03;10.98;;;;;;;;;;5042487;28;20068;-59
2022/01/16 03:58:35;;;;;;;30.48;9.13;;;;;;;;;;5050012;28;20037;-59
2022/01/16 04:01:03;;;;;;;35.35;9.50;;;;;;;;;;5042980;28;20056;-57
2022/01/16 04:03:30;;;;;;;42.97;11.43;;;;;;;;;;5051055;28;20056;-56
2022/01/16 04:05:56;;;;;;;32.90;10.45;;;;;;;;;;5046944;28;20106;-53
2022/01/16 04:08:23;;;;;;;36.90;10.55;;;;;;;;;;5047161;28;20052;-53
2022/01/16 04:10:49;;;;;;;34.08;10.05;;;;;;;;;;5048340;28;20037;-54
2022/01/16 04:13:19;;;;;;;37.65;10.63;;;;;;;;;;5042682;28;20056;-51
2022/01/16 04:15:47;;;;;;;32.75;10.15;;;;;;;;;;5049781;28;20060;-52
2022/01/16 04:18:15;;;;;;;33.33;10.33;;;;;;;;;;5042672;28;20057;-49
2022/01/16 04:20:42;;;;;;;34.45;11.85;;;;;;;;;;5044291;28;20051;-52
2022/01/16 04:23:10;;;;;;;34.58;9.82;;;;;;;;;;5041019;28;20049;-55
2022/01/16 04:25:36;;;;;;;34.42;11.57;;;;;;;;;;5048138;28;20152;-56
2022/01/16 04:28:03;;;;;;;27.88;9.57;;;;;;;;;;5043049;28;20063;-52
2022/01/16 04:30:30;;;;;;;28.70;10.23;;;;;;;;;;5051376;28;20059;-55
2022/01/16 04:32:57;;;;;;;33.60;10.32;;;;;;;;;;5049395;28;20045;-53
2022/01/16 04:35:25;;;;;;;32.80;10.02;;;;;;;;;;5047361;28;20056;-54
2022/01/16 04:37:51;;;;;;;31.10;11.13;;;;;;;;;;5046633;28;20059;-55
2022/01/16 04:40:18;;;;;;;27.38;10.00;;;;;;;;;;5043199;28;20049;-53
2022/01/16 04:45:32;;;;;;;35.78;10.75;;;;;;;;;;5041872;28;20059;-53
2022/01/16 04:47:59;;;;;;;41.72;13.95;;;;;;;;;;5046849;28;20060;-49
2022/01/16 04:50:27;;;;;;;39.55;12.57;;;;;;;;;;5039639;28;20059;-57
2022/01/16 04:52:54;;;;;;;36.65;12.73;;;;;;;;;;5049446;28;20474;-53
2022/01/16 04:55:25;;;;;;;41.55;12.27;;;;;;;;;;5043229;28;20045;-54
2022/01/16 04:57:52;;;;;;;32.33;10.68;;;;;;;;;;5051670;28;20056;-55
2022/01/16 05:00:19;;;;;;;41.33;13.20;;;;;;;;;;5043938;28;20137;-57
2022/01/16 05:02:45;;;;;;;29.42;10.25;;;;;;;;;;5031004;28;20119;-54
2022/01/16 05:05:12;;;;;;;34.90;12.10;;;;;;;;;;5031308;28;20053;-54
2022/01/16 05:07:40;;;;;;;35.95;11.68;;;;;;;;;;5048361;28;20061;-57
2022/01/16 05:10:07;;;;;;;39.60;13.43;;;;;;;;;;5040811;28;20072;-51
2022/01/16 05:12:36;;;;;;;35.30;11.98;;;;;;;;;;5045881;28;20109;-50
2022/01/16 05:17:49;;;;;;;27.52;10.00;;;;;;;;;;5047784;28;20048;-53
2022/01/16 05:20:15;;;;;;;36.33;11.90;;;;;;;;;;5041383;28;20051;-57
2022/01/16 05:22:44;;;;;;;41.78;14.18;;;;;;;;;;5048312;28;20489;-53
2022/01/16 05:25:13;;;;;;;36.97;12.38;;;;;;;;;;5040481;28;20106;-56
2022/01/16 05:27:39;;;;;;;39.60;12.25;;;;;;;;;;5046765;28;20085;-56
2022/01/16 05:30:07;;;;;;;39.08;12.50;;;;;;;;;;5047866;28;20060;-55
2022/01/16 05:32:34;;;;;;;39.05;13.60;;;;;;;;;;5041789;28;20092;-49
2022/01/16 05:35:00;;;;;;;40.25;13.38;;;;;;;;;;5048188;28;20063;-53
2022/01/16 05:37:27;;;;;;;47.08;13.02;;;;;;;;;;5041036;28;20049;-50
2022/01/16 05:39:55;;;;;;;33.78;11.57;;;;;;;;;;5048689;28;20053;-57
2022/01/16 05:42:22;;;;;;;40.58;13.27;;;;;;;;;;5040268;28;20107;-55
2022/01/16 05:44:48;;;;;;;42.17;13.77;;;;;;;;;;5048062;28;20049;-58
2022/01/16 05:47:17;;;;;;;42.65;14.13;;;;;;;;;;5041533;28;20435;-52
2022/01/16 05:49:43;;;;;;;41.92;14.35;;;;;;;;;;5049032;28;20414;-54
2022/01/16 05:52:12;;;;;;;40.28;14.10;;;;;;;;;;5043835;28;20045;-55
2022/01/16 05:54:39;;;;;;;38.72;12.32;;;;;;;;;;5052422;28;20045;-56
2022/01/16 05:57:08;;;;;;;31.60;10.75;;;;;;;;;;5045209;28;20044;-58
2022/01/16 05:59:34;;;;;;;40.08;14.07;;;;;;;;;;5051254;28;20057;-56
2022/01/16 06:02:01;;;;;;;41.22;12.55;;;;;;;;;;5045030;28;20065;-54
2022/01/16 06:04:27;;;;;;;37.03;11.40;;;;;;;;;;5052601;28;20119;-52
2022/01/16 06:06:54;;;;;;;35.65;11.63;;;;;;;;;;5045198;28;21328;-55
2022/01/16 06:09:21;;;;;;;36.65;13.43;;;;;;;;;;5051765;28;20063;-54
2022/01/16 06:11:47;;;;;;;39.90;12.63;;;;;;;;;;5049483;28;20053;-52
2022/01/16 06:14:15;;;;;;;40.92;13.88;;;;;;;;;;5032657;28;20049;-53
2022/01/16 06:16:44;;;;;;;41.70;12.30;;;;;;;;;;5032319;28;20056;-58
2022/01/16 06:19:10;;;;;;;35.92;11.63;;;;;;;;;;5043051;28;20076;-53
2022/01/16 06:21:37;;;;;;;37.92;12.27;;;;;;;;;;5052011;28;20056;-55
2022/01/16 06:24:04;;;;;;;33.88;12.65;;;;;;;;;;5043803;28;20103;-55
2022/01/16 06:26:31;;;;;;;35.63;12.13;;;;;;;;;;5050067;28;20073;-59
2022/01/16 06:28:58;;;;;;;41.40;13.98;;;;;;;;;;5045645;28;20049;-57
2022/01/16 06:31:26;;;;;;;38.38;13.48;;;;;;;;;;5058039;28;20079;-58
2022/01/16 06:33:52;;;;;;;49.10;15.20;;;;;;;;;;5045794;28;20072;-59
2022/01/16 06:36:21;;;;;;;35.03;13.57;;;;;;;;;;5051083;28;20052;-57
2022/01/16 06:38:48;;;;;;;;;;;;;;;;;;5044509;28;20151;-57
2022/01/16 06:41:15;;;;;;;38.75;12.55;;;;;;;;;;5050891;28;19993;-55
2022/01/16 06:43:41;;;;;;;44.08;16.25;;;;;;;;;;5044031;28;20045;-55
2022/01/16 06:46:08;;;;;;;44.17;15.13;;;;;;;;;;5034979;28;20080;-56
2022/01/16 06:48:36;;;;;;;41.72;15.27;;;;;;;;;;5026442;28;20061;-56
2022/01/16 06:51:03;;;;;;;38.25;13.30;;;;;;;;;;5050531;28;20057;-56
2022/01/16 06:53:30;;;;;;;44.45;15.23;;;;;;;;;;5044999;28;20045;-59
2022/01/16 06:55:56;;;;;;;42.58;15.80;;;;;;;;;;5048962;28;20056;-55
2022/01/16 06:58:23;;;;;;;43.25;15.30;;;;;;;;;;5049269;28;20064;-56
2022/01/16 07:00:49;;;;;;;49.15;16.23;;;;;;;;;;5044125;28;20056;-57
2022/01/16 07:03:16;;;;;;;42.70;14.32;;;;;;;;;;5048923;28;20049;-57
2022/01/16 07:05:45;;;;;;;44.63;15.32;;;;;;;;;;5043369;28;20053;-56
2022/01/16 07:08:11;;;;;;;37.80;13.90;;;;;;;;;;5050591;28;20048;-57
2022/01/16 07:10:38;;;;;;;43.30;15.50;;;;;;;;;;5043487;28;20049;-59
2022/01/16 07:13:05;;;;;;;40.15;14.15;;;;;;;;;;5043902;28;20114;-56
2022/01/16 07:15:33;;;;;;;37.75;14.75;;;;;;;;;;5034395;28;20045;-57
2022/01/16 07:17:59;;;;;;;41.67;13.30;;;;;;;;;;5050889;28;20048;-55
2022/01/16 07:20:26;;;;;;;36.22;14.35;;;;;;;;;;5043569;28;20061;-58
2022/01/16 07:22:54;;;;;;;38.78;15.27;;;;;;;;;;5046623;28;20049;-54
2022/01/16 07:25:20;;;;;;;32.90;11.95;;;;;;;;;;5045913;28;20084;-56
2022/01/16 07:27:47;;;;;;;39.13;13.32;;;;;;;;;;5052498;28;20048;-54
2022/01/16 07:30:14;;;;;;;32.88;12.75;;;;;;;;;;5044923;28;20104;-59
2022/01/16 07:32:40;;;;;;;41.20;14.35;;;;;;;;;;5050250;28;20053;-58
2022/01/16 07:35:07;;;;;;;38.05;13.23;;;;;;;;;;5044934;28;20049;-59
2022/01/16 07:37:34;;;;;;;38.50;14.27;;;;;;;;;;5051293;28;20057;-57
2022/01/16 07:40:02;;;;;;;36.00;14.43;;;;;;;;;;5052612;28;20053;-57
2022/01/16 07:42:29;;;;;;;40.50;14.30;;;;;;;;;;5043040;28;20044;-58
2022/01/16 07:44:55;;;;;;;31.55;13.18;;;;;;;;;;5049141;28;20060;-58
2022/01/16 07:47:24;;;;;;;29.88;11.25;;;;;;;;;;5044074;28;20072;-56
2022/01/16 07:49:50;;;;;;;33.25;12.85;;;;;;;;;;5054251;28;20087;-59
2022/01/16 07:52:17;;;;;;;27.98;11.27;;;;;;;;;;5043308;28;20072;-59
2022/01/16 07:54:44;;;;;;;39.45;13.55;;;;;;;;;;5053297;28;20091;-57
2022/01/16 07:57:13;;;;;;;33.90;12.48;;;;;;;;;;5043061;28;20064;-55
2022/01/16 07:59:40;;;;;;;30.13;11.60;;;;;;;;;;5060039;28;20057;-57
2022/01/16 08:02:07;;;;;;;37.53;12.43;;;;;;;;;;5049669;28;20099;-53
2022/01/16 08:04:35;;;;;;;29.92;11.15;;;;;;;;;;5051256;28;20053;-57
2022/01/16 08:07:05;;;;;;;26.65;10.98;;;;;;;;;;5043972;28;20048;-56
2022/01/16 08:09:32;;;;;;;29.33;10.38;;;;;;;;;;5066369;28;20049;-58
2022/01/16 08:12:00;;;;;;;31.55;12.20;;;;;;;;;;5043716;28;20114;-56
2022/01/16 08:14:27;;;;;;;31.20;12.82;;;;;;;;;;5049931;28;20136;-55
2022/01/16 08:16:56;;;;;;;28.05;11.77;;;;;;;;;;5042745;28;20045;-53
2022/01/16 08:19:23;;;;;;;28.00;12.10;;;;;;;;;;5051641;28;20064;-54
2022/01/16 08:21:50;;;;;;;29.88;11.90;;;;;;;;;;5049701;28;20312;-51
2022/01/16 08:24:17;;;;;;;32.03;11.40;;;;;;;;;;5046932;28;20057;-55
2022/01/16 08:26:43;;;;;;;25.67;10.98;;;;;;;;;;5052253;28;20069;-53
2022/01/16 08:29:10;;;;;;;27.83;10.73;;;;;;;;;;5043717;28;20044;-48
2022/01/16 08:31:38;;;;;;;24.60;10.43;;;;;;;;;;5049104;28;20198;-49
2022/01/16 08:34:05;;;;;;;27.48;11.70;;;;;;;;;;5043827;28;20093;-55
2022/01/16 08:36:32;;;;;;;28.35;10.63;;;;;;;;;;5049658;28;20048;-55
2022/01/16 08:38:59;;;;;;;32.55;11.77;;;;;;;;;;5043000;28;20064;-51
2022/01/16 08:41:26;;;;;;;30.00;11.75;;;;;;;;;;5048159;28;20249;-50
2022/01/16 08:43:53;;;;;;;26.83;9.52;;;;;;;;;;5041085;28;20107;-56
2022/01/16 08:46:21;;;;;;;26.88;10.82;;;;;;;;;;5052558;28;20037;-52
2022/01/16 08:48:49;;;;;;;30.48;11.30;;;;;;;;;;5044419;28;20061;-52
2022/01/16 08:51:15;;;;;;;22.83;9.88;;;;;;;;;;5048389;28;20110;-53
2022/01/16 08:53:42;;;;;;;29.65;10.88;;;;;;;;;;5043035;28;20064;-54
2022/01/16 08:56:10;;;;;;;27.45;10.93;;;;;;;;;;5032723;28;20057;-55
2022/01/16 08:58:36;;;;;;;24.03;10.03;;;;;;;;;;5043775;28;20144;-55
2022/01/16 09:01:03;;;;;;;24.38;10.23;;;;;;;;;;5050096;28;20131;-56
2022/01/16 09:03:29;;;;;;;24.52;9.20;;;;;;;;;;5046016;28;20045;-54
2022/01/16 09:05:58;;;;;;;20.38;9.48;;;;;;;;;;5047212;28;20135;-50
2022/01/16 09:08:25;;;;;;;24.92;9.68;;;;;;;;;;5052103;28;20049;-57
2022/01/16 09:10:52;;;;;;;27.67;10.60;;;;;;;;;;5042609;28;20053;-55
2022/01/16 09:13:18;;;;;;;29.45;11.10;;;;;;;;;;5050533;28;20049;-56
2022/01/16 09:15:51;;;;;;;26.05;10.80;;;;;;;;;;5043635;28;20082;-56
2022/01/16 09:18:19;;;;;;;22.40;8.73;;;;;;;;;;5050516;28;20156;-57
2022/01/16 09:20:46;;;;;;;32.88;10.50;;;;;;;;;;5042403;28;20044;-58
2022/01/16 09:23:14;;;;;;;26.25;10.48;;;;;;;;;;5049066;28;20041;-56
2022/01/16 09:25:41;;;;;;;27.52;9.73;;;;;;;;;;5043206;28;20061;-54
2022/01/16 09:28:07;;;;;;;24.23;9.15;;;;;;;;;;5053845;28;20064;-58
2022/01/16 09:30:34;;;;;;;21.52;7.65;;;;;;;;;;5044983;28;20068;-55
2022/01/16 09:33:01;;;;;;;24.00;9.00;;;;;;;;;;5049838;28;20049;-55
2022/01/16 09:35:28;;;;;;;31.08;10.55;;;;;;;;;;5043974;28;20052;-58
2022/01/16 09:37:58;;;;;;;23.92;9.32;;;;;;;;;;5049335;28;20073;-54
2022/01/16 09:40:26;;;;;;;27.67;9.93;;;;;;;;;;5042331;28;20049;-58
2022/01/16 09:42:53;;;;;;;24.35;10.10;;;;;;;;;;5051638;28;20053;-54
2022/01/16 09:45:20;;;;;;;24.52;9.18;;;;;;;;;;5040015;28;20056;-51
2022/01/16 09:47:47;;;;;;;27.38;10.13;;;;;;;;;;5047001;28;20102;-52
2022/01/16 09:50:15;;;;;;;22.63;8.70;;;;;;;;;;5049943;28;20057;-53
2022/01/16 09:52:43;;;;;;;22.43;8.70;;;;;;;;;;5045494;28;20048;-54
2022/01/16 09:55:18;;;;;;;33.70;10.60;;;;;;;;;;5048584;28;20063;-52
2022/01/16 09:57:46;;;;;;;26.85;9.77;;;;;;;;;;5041836;28;20056;-53
2022/01/16 10:00:14;;;;;;;27.45;10.43;;;;;;;;;;5049557;28;20056;-53
2022/01/16 10:02:41;;;;;;;29.67;10.02;;;;;;;;;;5056356;28;20045;-49
2022/01/16 10:05:29;;;;;;;27.52;9.75;;;;;;;;;;5047480;28;20111;-53
2022/01/16 10:07:56;;;;;;;23.30;8.68;;;;;;;;;;5041040;28;20139;-55
2022/01/16 10:10:25;;;;;;;33.13;10.50;;;;;;;;;;5046807;28;20099;-56
2022/01/16 10:12:55;;;;;;;27.33;9.30;;;;;;;;;;5041415;28;20061;-53
2022/01/16 10:15:24;;;;;;;41.38;15.07;;;;;;;;;;5048507;28;20084;-51
2022/01/16 10:17:51;;;;;;;32.88;11.63;;;;;;;;;;5043079;28;20051;-55
2022/01/16 10:20:18;;;;;;;36.17;11.57;;;;;;;;;;5047869;28;20057;-57
2022/01/16 10:22:46;;;;;;;31.25;10.85;;;;;;;;;;5043734;28;20048;-48
2022/01/16 10:25:14;;;;;;;21.25;7.70;;;;;;;;;;5044925;28;20053;-56
2022/01/16 10:27:41;;;;;;;36.42;11.07;;;;;;;;;;5039916;28;20128;-55
2022/01/16 10:30:12;;;;;;;33.47;11.48;;;;;;;;;;5046376;28;20046;-55
2022/01/16 10:32:40;;;;;;;31.02;11.35;;;;;;;;;;5040363;28;20180;-55
2022/01/16 10:35:12;;;;;;;30.23;11.00;;;;;;;;;;5047420;28;20076;-57
2022/01/16 10:37:39;;;;;;;27.60;9.35;;;;;;;;;;5039787;28;20052;-55
2022/01/16 10:40:09;;;;;;;27.73;10.45;;;;;;;;;;5048678;28;20056;-53
2022/01/16 10:42:36;;;;;;;36.20;11.43;;;;;;;;;;5042712;28;20095;-54
2022/01/16 10:45:05;;;;;;;27.83;10.25;;;;;;;;;;5048885;28;20099;-55
2022/01/16 10:47:35;;;;;;;40.95;13.05;;;;;;;;;;5046776;28;20112;-56
2022/01/16 10:50:04;;;;;;;33.30;12.20;;;;;;;;;;5049826;28;20061;-56
2022/01/16 10:52:31;;;;;;;31.83;11.13;;;;;;;;;;5048912;28;20049;-56
2022/01/16 10:55:08;;;;;;;37.45;12.38;;;;;;;;;;5045189;28;20053;-57
2022/01/16 10:57:35;;;;;;;38.92;13.30;;;;;;;;;;5060768;28;20056;-58
2022/01/16 11:00:06;;;;;;;33.50;11.80;;;;;;;;;;5050571;28;20061;-59
2022/01/16 11:02:34;;;;;;;38.38;12.70;;;;;;;;;;5050021;28;20075;-53
2022/01/16 11:05:05;;;;;;;45.33;14.07;;;;;;;;;;5042963;28;20518;-58
2022/01/16 11:07:32;;;;;;;28.50;9.93;;;;;;;;;;5049700;28;20068;-59
2022/01/16 11:10:00;;;;;;;33.47;10.23;;;;;;;;;;5043121;28;20048;-58
2022/01/16 11:12:27;;;;;;;32.33;9.00;;;;;;;;;;5049105;28;20045;-56
2022/01/16 11:14:53;;;;;;;38.15;12.70;;;;;;;;;;5051546;28;20056;-59
2022/01/16 11:17:20;;;;;;;39.95;13.18;;;;;;;;;;5050017;28;20079;-59
2022/01/16 11:19:48;;;;;;;35.67;11.82;;;;;;;;;;5043714;28;20048;-58
2022/01/16 11:22:22;;;;;;;41.08;13.10;;;;;;;;;;5048240;28;20053;-58
2022/01/16 11:25:01;;;;;;;41.20;11.73;;;;;;;;;;5034726;28;20151;-58
2022/01/16 11:27:31;;;;;;;33.78;11.38;;;;;;;;;;5046836;28;20056;-56
2022/01/16 11:29:57;;;;;;;45.38;14.52;;;;;;;;;;5043097;28;20114;-59
2022/01/16 11:32:24;;;;;;;40.72;13.25;;;;;;;;;;5048225;28;20080;-58
2022/01/16 11:34:52;;;;;;;37.67;12.60;;;;;;;;;;5042031;28;20114;-59
2022/01/16 11:37:19;;;;;;;27.17;9.48;;;;;;;;;;5048712;28;20052;-57
2022/01/16 11:39:45;;;;;;;39.35;11.70;;;;;;;;;;5041878;28;20081;-58
2022/01/16 11:42:15;;;;;;;51.67;13.52;;;;;;;;;;5048835;28;20049;-55
2022/01/16 11:44:50;;;;;;;42.28;12.00;;;;;;;;;;5048908;28;20052;-56
2022/01/16 11:47:19;;;;;;;38.83;12.30;;;;;;;;;;5048521;28;20048;-55
2022/01/16 11:49:46;;;;;;;39.15;12.68;;;;;;;;;;5039722;28;20064;-57
2022/01/16 11:52:17;;;;;;;45.28;13.45;;;;;;;;;;5042670;28;20044;-58
2022/01/16 11:54:45;;;;;;;35.00;12.00;;;;;;;;;;5049344;28;20053;-57
2022/01/16 11:57:22;;;;;;;33.07;10.37;;;;;;;;;;5041859;28;20080;-54
2022/01/16 11:59:50;;;;;;;44.92;12.82;;;;;;;;;;5050026;28;20057;-58
2022/01/16 12:02:21;;;;;;;30.08;8.40;;;;;;;;;;5041949;28;20114;-55
2022/01/16 12:04:51;;;;;;;45.20;13.13;;;;;;;;;;5043971;28;20070;-55
2022/01/16 12:07:45;;;;;;;35.70;9.88;;;;;;;;;;5044464;28;20068;-60
2022/01/16 12:10:14;;;;;;;50.03;14.27;;;;;;;;;;5049043;28;20053;-59
2022/01/16 12:12:40;;;;;;;40.13;12.52;;;;;;;;;;5040296;28;20151;-56
2022/01/16 12:15:08;;;;;;;46.03;13.85;;;;;;;;;;5060180;28;20089;-61
2022/01/16 12:17:35;;;;;;;39.80;11.75;;;;;;;;;;5044340;28;20075;-60
2022/01/16 12:20:21;;;;;;;51.97;14.10;;;;;;;;;;5049453;28;20060;-61
2022/01/16 12:22:48;;;;;;;49.63;13.50;;;;;;;;;;5045293;28;20045;-56
2022/01/16 12:25:20;;;;;;;44.75;12.25;;;;;;;;;;5050738;28;20110;-60
2022/01/16 12:27:48;;;;;;;55.03;16.42;;;;;;;;;;5046379;28;20049;-59
2022/01/16 12:30:33;;;;;;;44.38;12.38;;;;;;;;;;5047306;28;20053;-53
2022/01/16 12:33:03;;;;;;;56.03;13.32;;;;;;;;;;5041013;28;20251;-54
2022/01/16 12:36:08;;;;;;;42.97;12.52;;;;;;;;;;5057645;28;20134;-56
2022/01/16 12:38:36;;;;;;;36.30;11.10;;;;;;;;;;5039708;28;20311;-53
2022/01/16 12:41:05;;;;;;;40.00;12.23;;;;;;;;;;5046313;28;20049;-56
2022/01/16 12:43:33;;;;;;;38.25;12.13;;;;;;;;;;5043024;28;20076;-55
2022/01/16 12:46:01;;;;;;;45.17;13.02;;;;;;;;;;5048941;28;20071;-56
2022/01/16 12:48:28;;;;;;;52.03;14.60;;;;;;;;;;5041365;28;20053;-57
2022/01/16 12:50:59;;;;;;;55.55;16.17;;;;;;;;;;5051565;28;20052;-52
2022/01/16 12:53:36;;;;;;;44.47;13.73;;;;;;;;;;5042990;28;20081;-53
2022/01/16 12:56:18;;;;;;;41.92;12.10;;;;;;;;;;5048394;28;20102;-55
2022/01/16 12:58:45;;;;;;;53.20;14.05;;;;;;;;;;5058573;28;20120;-56
2022/01/16 13:01:11;;;;;;;46.20;13.15;;;;;;;;;;5050390;28;20053;-56
2022/01/16 13:03:38;;;;;;;50.58;13.75;;;;;;;;;;5041715;28;20041;-55
2022/01/16 13:06:17;;;;;;;48.17;14.23;;;;;;;;;;5047864;28;20068;-56
2022/01/16 13:08:57;;;;;;;52.97;13.38;;;;;;;;;;5043185;28;20056;-56
2022/01/16 13:11:26;;;;;;;40.10;11.35;;;;;;;;;;5049467;28;20081;-53
2022/01/16 13:13:52;;;;;;;46.10;14.00;;;;;;;;;;5036265;28;20052;-56
2022/01/16 13:16:24;;;;;;;42.83;13.13;;;;;;;;;;5048337;28;20107;-56
2022/01/16 13:19:13;;;;;;;45.80;14.90;;;;;;;;;;5040998;28;20052;-56
2022/01/16 13:21:41;;;;;;;38.63;11.80;;;;;;;;;;5026606;28;20045;-55
2022/01/16 13:24:07;;;;;;;52.88;14.57;;;;;;;;;;5028158;28;20175;-57
2022/01/16 13:26:37;;;;;;;53.75;15.57;;;;;;;;;;5049058;28;20053;-58
2022/01/16 13:29:04;;;;;;;56.20;14.85;;;;;;;;;;5041050;28;20107;-55
2022/01/16 13:31:31;;;;;;;44.30;14.93;;;;;;;;;;5047205;28;20053;-59
2022/01/16 13:34:08;;;;;;;44.97;14.15;;;;;;;;;;5047060;28;20064;-58
2022/01/16 13:36:34;;;;;;;45.97;13.90;;;;;;;;;;5027879;28;20072;-58
2022/01/16 13:39:01;;;;;;;46.38;13.77;;;;;;;;;;5028244;28;20103;-55
2022/01/16 13:41:27;;;;;;;43.90;13.68;;;;;;;;;;5041306;28;20053;-59
2022/01/16 13:43:55;;;;;;;50.15;15.32;;;;;;;;;;5048835;28;20064;-56
2022/01/16 13:46:29;;;;;;;54.42;16.30;;;;;;;;;;5042634;28;20049;-55
2022/01/16 13:49:00;;;;;;;57.22;15.98;;;;;;;;;;5048594;28;20087;-56
2022/01/16 13:51:30;;;;;;;45.22;13.90;;;;;;;;;;5041828;28;20556;-58
2022/01/16 13:54:09;;;;;;;45.47;14.43;;;;;;;;;;5049314;28;20122;-56
2022/01/16 13:56:38;;;;;;;44.58;14.38;;;;;;;;;;5047971;28;20053;-49
2022/01/16 13:59:10;;;;;;;43.70;14.15;;;;;;;;;;5049322;28;20061;-56
2022/01/16 14:01:39;;;;;;;49.30;15.02;;;;;;;;;;5038198;28;20059;-56
2022/01/16 14:04:13;;;;;;;47.83;14.25;;;;;;;;;;5046201;28;20057;-59
2022/01/16 14:06:50;;;;;;;44.28;13.93;;;;;;;;;;5040704;28;20071;-54
2022/01/16 14:09:17;;;;;;;44.50;12.77;;;;;;;;;;5045119;28;20048;-52
2022/01/16 14:11:44;;;;;;;42.33;12.93;;;;;;;;;;5040199;28;20072;-56
2022/01/16 14:14:13;;;;;;;38.38;13.05;;;;;;;;;;5049131;28;20197;-57
2022/01/16 14:16:46;;;;;;;32.05;10.10;;;;;;;;;;5055124;28;20056;-51
2022/01/16 14:19:15;;;;;;;37.35;11.63;;;;;;;;;;5051014;28;20045;-56
2022/01/16 14:22:02;;;;;;;;;;;;;;;;;;5045021;28;20057;-54
2022/01/16 14:24:29;;;;;;;30.70;9.82;;;;;;;;;;5049944;28;19921;-56
2022/01/16 14:26:57;;;;;;;30.70;11.55;;;;;;;;;;5044020;28;20060;-54
2022/01/16 14:29:25;;;;;;;29.92;10.95;;;;;;;;;;5049647;28;20048;-55
2022/01/16 14:31:53;;;;;;;27.40;9.65;;;;;;;;;;5043734;28;20045;-56
2022/01/16 14:34:20;;;;;;;33.15;11.32;;;;;;;;;;5051178;28;20106;-53
2022/01/16 14:36:46;;;;;;;35.22;12.05;;;;;;;;;;5044278;28;20143;-57
2022/01/16 14:39:14;;;;;;;35.17;11.63;;;;;;;;;;5051039;28;20061;-53
2022/01/16 14:41:45;;;;;;;36.22;12.57;;;;;;;;;;5044733;28;20127;-54
2022/01/16 14:44:13;;;;;;;33.30;11.35;;;;;;;;;;5049251;28;20060;-52
2022/01/16 14:46:41;;;;;;;31.75;8.90;;;;;;;;;;5051034;28;20053;-52
2022/01/16 14:49:08;;;;;;;26.10;8.88;;;;;;;;;;5045112;28;20056;-56
2022/01/16 14:51:34;;;;;;;28.38;10.48;;;;;;;;;;5051526;28;20084;-55
2022/01/16 14:54:01;;;;;;;26.35;9.88;;;;;;;;;;5042189;28;20126;-54
2022/01/16 14:56:29;;;;;;;28.00;10.40;;;;;;;;;;5051572;28;20064;-56
2022/01/16 14:58:55;;;;;;;25.52;9.63;;;;;;;;;;5044556;28;20354;-55
2022/01/16 15:01:22;;;;;;;27.25;9.57;;;;;;;;;;5047793;28;20057;-56
2022/01/16 15:03:50;;;;;;;27.90;10.05;;;;;;;;;;5043317;28;20057;-57
2022/01/16 15:06:18;;;;;;;30.92;10.85;;;;;;;;;;5051988;28;20063;-58
2022/01/16 15:08:46;;;;;;;30.30;10.52;;;;;;;;;;5045061;28;20079;-58